Airfield :
LOGIN :

Register | Disclaimer

   EN    FR    IT 

 










Legend :    VFR   Marginal VFR   IFR   Intensive IFR   Very Intensive IFR
Visi :
Ceiling :
>= 8 km
>= 3000ft
5 to 8 km
1000 to 3000 ft
1500m to 5 km
500 to 1000 ft
800 to 1500m
200 to 500 ft
< 800m
< 200 ft
Symbols :   Thunderstorms  Fog  Heavy snow  Heavy precipitations  Wind > 20 kt
SIGMETs :     Misc.  Thunderstorms  Icing  Turbulence  Mountain Waves  Volcanic Ashes






- Airport Elevation : 36 ft
- IATA code : LTQ


LFAT - Le Touquet

CURRENT METAR :
  • 270830Z AUTO 12010KT 7000 -SN BKN004/// OVC013/// ///CB 01/00 Q0993 BECMG RA OVC007

EXPIRED METARs :
  • 270800Z AUTO 13011KT 100V160 4500 -SN BR OVC004/// ///CB 01/00 Q0994 TEMPO 2000 -SN BECMG OVC009
  • 270730Z AUTO 13014KT 9000 -SN OVC007/// ///CB 02/01 Q0995 BECMG 4000 RA OVC009
  • 270700Z AUTO 13012KT 9999 -RA OVC009/// ///CB 03/02 Q0996 TEMPO 2000 -SN OVC004
  • 270630Z AUTO 15010KT 120V180 8000 -RA OVC010/// ///CB 03/02 Q0997 TEMPO 2000 -SN OVC004
  • 270600Z AUTO 16009KT 130V190 9000 -RA OVC012/// ///TCU 04/02 Q0998
  • 270530Z AUTO 16008KT 9999 -RA BKN012/// OVC026/// ///TCU 04/03 Q0999

TAF TAF LFAT
Valid from the 27 at 09:00 until the 27 at 18:00 UTC


270800Z 2709/2718 13015KT 9999 RA OVC007
BECMG 2711/2713 33020G35KT NSW BKN017
ATIS : +33 3 21 06 62 84



MET'MAP, your aeronautical weather chart ! - Copyright ORBIFLY December 2007 - Disclaimer

ORBIFLY MET'MAP TEAM :

Programming & Development : Alexandra Zaïnal
Concept & original design : Baudouin d'Aumeries
Assistance for programming : Marc-Olivier Méhu
Technical & hardware support : Manuel Goepfert

Contact : metmap@orbifly.com




SOURCES & CREDITS :

   NOAA